Time;durP1;ratioP1;P1;durP2;ratioP2;P2;SDS_P1;SDS_P2;PMS_P1;PMS_P2;Temp;Humidity;BMP_temperature;BMP_pressure;BME280_temperature;BME280_humidity;BME280_pressure;Samples;Min_cycle;Max_cycle;Signal;HPM_P1;HPM_P2
2023/08/14 00:00:01;;;;;;;8.93;4.22;;;;;;;23.66;57.28;98481.53;4434350;32;20069;-80
2023/08/14 00:02:28;;;;;;;9.15;4.70;;;;;;;23.76;56.77;98486.81;4435077;32;20451;-80
2023/08/14 00:04:54;;;;;;;8.07;4.22;;;;;;;23.60;57.08;98483.87;4434749;32;20053;-80
2023/08/14 00:07:21;;;;;;;9.55;4.28;;;;;;;24.48;54.39;98485.53;4435413;32;20114;-80
2023/08/14 00:09:48;;;;;;;8.43;4.03;;;;;;;24.46;53.91;98476.94;4435452;32;20164;-80
2023/08/14 00:12:15;;;;;;;10.68;4.35;;;;;;;24.01;55.20;98479.31;4437429;32;20656;-80
2023/08/14 00:14:42;;;;;;;9.98;4.37;;;;;;;24.01;54.92;98481.94;4435529;32;20066;-80
2023/08/14 00:17:10;;;;;;;8.27;4.20;;;;;;;23.65;55.55;98485.13;4434626;32;20066;-80
2023/08/14 00:19:36;;;;;;;9.40;4.65;;;;;;;23.00;57.72;98480.38;4435250;32;20734;-80
2023/08/14 00:22:04;;;;;;;13.32;4.90;;;;;;;22.83;58.27;98483.59;4435020;32;20085;-80
2023/08/14 00:24:31;;;;;;;8.85;4.53;;;;;;;23.05;57.67;98489.53;4434418;32;20061;-80
2023/08/14 00:26:58;;;;;;;9.23;4.40;;;;;;;23.13;57.89;98480.97;4434381;32;20856;-80
2023/08/14 00:29:26;;;;;;;9.35;4.70;;;;;;;23.15;57.30;98484.28;4434594;32;20078;-80
2023/08/14 00:31:53;;;;;;;8.02;4.28;;;;;;;23.33;57.11;98495.03;4432962;32;20054;-80
2023/08/14 00:34:20;;;;;;;9.60;4.50;;;;;;;23.47;56.76;98486.72;4434193;32;20112;-80
2023/08/14 00:36:47;;;;;;;8.45;4.03;;;;;;;23.37;57.28;98485.88;4433288;32;20110;-80
2023/08/14 00:39:14;;;;;;;9.27;4.18;;;;;;;22.97;58.33;98488.56;4433460;32;20104;-80
2023/08/14 00:41:41;;;;;;;9.27;4.68;;;;;;;23.49;56.84;98486.59;4433106;32;20160;-80
2023/08/14 00:44:08;;;;;;;9.93;4.75;;;;;;;22.95;58.56;98496.53;4433614;32;20728;-80
2023/08/14 00:46:42;;;;;;;10.13;4.85;;;;;;;22.80;59.20;98489.97;4432995;32;20112;-80
2023/08/14 00:49:10;;;;;;;9.45;4.72;;;;;;;22.95;58.65;98487.81;4433704;32;20073;-80
2023/08/14 00:51:37;;;;;;;10.52;4.93;;;;;;;23.01;58.67;98490.78;4420037;32;20082;-80
2023/08/14 00:54:04;;;;;;;8.93;4.43;;;;;;;23.06;58.73;98490.34;4434008;32;20073;-80
2023/08/14 00:56:31;;;;;;;10.52;4.28;;;;;;;23.36;57.70;98498.22;4420693;32;20070;-80
2023/08/14 00:58:58;;;;;;;10.68;4.50;;;;;;;23.17;58.16;98490.25;4433763;32;20392;-80
2023/08/14 01:01:25;;;;;;;9.35;4.55;;;;;;;23.47;57.19;98489.38;4433741;32;20058;-80
2023/08/14 01:03:53;;;;;;;8.43;4.43;;;;;;;23.62;56.43;98492.50;4420620;32;20801;-80
2023/08/14 01:06:22;;;;;;;10.40;4.62;;;;;;;23.33;57.63;98482.69;4433629;32;20133;-80
2023/08/14 01:08:49;;;;;;;10.00;5.15;;;;;;;23.09;58.76;98488.31;4435196;32;20096;-80
2023/08/14 01:11:28;;;;;;;10.60;4.53;;;;;;;23.21;58.21;98506.63;4433098;32;20106;-80
2023/08/14 01:13:57;;;;;;;9.32;4.18;;;;;;;23.21;57.35;98501.38;4419173;32;20081;-80
2023/08/14 01:16:26;;;;;;;11.05;4.65;;;;;;;23.13;57.28;98495.94;4432902;32;20050;-80
2023/08/14 01:18:55;;;;;;;10.13;4.60;;;;;;;22.69;58.71;98492.66;4418417;32;20109;-80
2023/08/14 01:21:47;;;;;;;9.82;4.70;;;;;;;23.06;57.31;98495.62;4431995;32;20076;-80
2023/08/14 01:24:25;;;;;;;7.95;4.20;;;;;;;22.96;57.94;98489.50;4423004;32;20473;-80
2023/08/14 01:26:54;;;;;;;9.48;4.40;;;;;;;22.70;59.15;98487.28;4418295;32;20070;-80
2023/08/14 01:29:21;;;;;;;10.95;4.90;;;;;;;22.62;59.62;98484.47;4432758;32;20140;-80
2023/08/14 01:31:48;;;;;;;8.48;4.47;;;;;;;22.54;60.09;98476.37;4432906;32;20062;-80
2023/08/14 01:34:15;;;;;;;10.27;4.37;;;;;;;22.90;58.67;98485.59;4432975;32;20113;-80
2023/08/14 01:36:51;;;;;;;11.25;5.05;;;;;;;22.87;58.86;98464.00;4432449;32;20136;-80
2023/08/14 01:39:20;;;;;;;8.73;4.32;;;;;;;22.99;58.21;98478.72;4418537;32;20066;-80
2023/08/14 01:41:50;;;;;;;10.10;4.43;;;;;;;22.74;58.84;98467.63;4419554;32;20104;-80
2023/08/14 01:44:19;;;;;;;8.48;4.32;;;;;;;23.23;56.78;98457.31;4435569;32;20125;-80
2023/08/14 01:46:47;;;;;;;8.80;4.30;;;;;;;22.83;58.07;98457.28;4421362;32;20097;-80
2023/08/14 01:49:17;;;;;;;8.82;4.43;;;;;;;23.19;56.90;98448.88;4435763;32;20057;-80
2023/08/14 01:51:45;;;;;;;8.80;4.60;;;;;;;23.07;57.79;98453.41;4436783;32;20054;-80
2023/08/14 01:54:12;;;;;;;10.60;4.50;;;;;;;23.07;57.37;98447.28;4436175;32;20102;-80
2023/08/14 01:56:41;;;;;;;8.20;4.10;;;;;;;22.88;58.65;98447.25;4434990;32;20063;-80
2023/08/14 01:59:08;;;;;;;9.23;4.30;;;;;;;22.68;59.82;98452.38;4436409;32;20081;-80
2023/08/14 02:01:35;;;;;;;8.07;4.30;;;;;;;23.10;56.27;98457.56;4435935;32;20093;-78
2023/08/14 02:04:03;;;;;;;9.05;4.70;;;;;;;22.55;57.95;98459.66;4435368;32;20098;-80
2023/08/14 02:06:31;;;;;;;8.45;4.20;;;;;;;22.26;58.64;98461.28;4436375;32;20118;-80
2023/08/14 02:08:58;;;;;;;10.00;4.30;;;;;;;22.44;57.72;98457.94;4435681;32;20054;-80
2023/08/14 02:11:25;;;;;;;11.90;4.47;;;;;;;22.41;58.19;98457.34;4435328;32;20081;-80
2023/08/14 02:13:52;;;;;;;9.15;4.47;;;;;;;21.79;59.63;98455.50;4434069;32;20094;-80
2023/08/14 02:16:19;;;;;;;12.75;4.30;;;;;;;22.09;59.46;98460.87;4435008;32;20108;-80
2023/08/14 02:18:46;;;;;;;8.85;4.37;;;;;;;22.03;59.75;98457.94;4435397;32;20123;-80
2023/08/14 02:21:13;;;;;;;9.00;4.28;;;;;;;21.86;60.32;98459.31;4435082;32;20114;-80
2023/08/14 02:23:40;;;;;;;9.13;4.65;;;;;;;22.15;59.84;98457.78;4435061;32;20081;-80
2023/08/14 02:26:08;;;;;;;9.48;5.03;;;;;;;21.79;61.13;98453.72;4435391;32;20090;-80
2023/08/14 02:28:35;;;;;;;10.82;5.03;;;;;;;22.09;60.52;98458.25;4435908;32;20073;-80
2023/08/14 02:31:04;;;;;;;9.07;4.50;;;;;;;22.07;60.74;98456.72;4436220;32;20097;-80
2023/08/14 02:33:31;;;;;;;9.57;4.80;;;;;;;21.69;62.26;98459.84;4436203;32;20833;-80
2023/08/14 02:35:59;;;;;;;9.88;4.78;;;;;;;21.97;61.80;98467.13;4435762;32;20102;-80
2023/08/14 02:38:26;;;;;;;9.75;4.75;;;;;;;22.25;60.57;98454.37;4435524;32;20076;-80
2023/08/14 02:40:53;;;;;;;9.00;4.18;;;;;;;22.74;58.69;98459.72;4435674;32;20081;-80
2023/08/14 02:43:20;;;;;;;9.20;4.70;;;;;;;22.76;58.13;98460.47;4434738;32;20632;-80
2023/08/14 02:45:49;;;;;;;9.05;4.60;;;;;;;22.55;57.56;98466.72;4435208;32;20102;-80
2023/08/14 02:48:15;;;;;;;9.80;4.28;;;;;;;21.79;59.27;98458.12;4435070;32;20832;-80
2023/08/14 02:50:42;;;;;;;10.00;4.87;;;;;;;21.54;60.21;98464.56;4435465;32;20093;-78
2023/08/14 02:53:09;;;;;;;10.82;4.70;;;;;;;22.13;59.29;98466.75;4437168;32;20058;-80
2023/08/14 02:55:36;;;;;;;10.30;4.40;;;;;;;22.36;58.74;98464.81;4436459;32;20120;-80
2023/08/14 02:58:03;;;;;;;11.23;4.50;;;;;;;21.63;61.14;98462.03;4436686;32;20097;-79
2023/08/14 03:00:30;;;;;;;9.55;4.35;;;;;;;21.71;61.36;98468.47;4437597;32;20071;-80
2023/08/14 03:02:57;;;;;;;8.98;4.53;;;;;;;22.09;60.58;98471.41;4436627;32;20077;-80
2023/08/14 03:05:24;;;;;;;10.50;4.80;;;;;;;22.20;59.57;98476.59;4435693;32;20102;-80
2023/08/14 03:07:51;;;;;;;10.20;4.82;;;;;;;21.48;62.29;98476.41;4435327;32;20116;-80
2023/08/14 03:10:18;;;;;;;9.27;4.80;;;;;;;22.21;59.49;98475.63;4433799;32;20101;-80
2023/08/14 03:12:45;;;;;;;9.30;4.80;;;;;;;21.66;61.95;98469.66;4433190;32;20176;-80
2023/08/14 03:15:12;;;;;;;8.98;4.70;;;;;;;21.63;62.71;98469.91;4433774;32;20737;-80
2023/08/14 03:17:39;;;;;;;9.63;4.82;;;;;;;21.87;61.70;98468.84;4433861;32;20101;-80
2023/08/14 03:20:09;;;;;;;9.80;4.80;;;;;;;22.13;60.03;98477.25;4434411;32;20556;-80
2023/08/14 03:22:36;;;;;;;10.25;4.80;;;;;;;21.54;62.47;98475.06;4436093;32;20061;-80
2023/08/14 03:25:04;;;;;;;10.32;4.65;;;;;;;22.05;61.37;98472.59;4436833;32;20112;-80
2023/08/14 03:27:30;;;;;;;8.35;4.37;;;;;;;22.16;60.54;98477.81;4422540;32;20097;-80
2023/08/14 03:29:58;;;;;;;10.73;4.90;;;;;;;22.35;59.14;98478.94;4435964;32;20083;-80
2023/08/14 03:32:24;;;;;;;9.77;4.78;;;;;;;22.19;58.61;98477.56;4436290;32;20145;-80
2023/08/14 03:34:51;;;;;;;9.35;4.60;;;;;;;22.50;57.76;98481.06;4435132;32;20085;-80
2023/08/14 03:37:18;;;;;;;9.02;4.47;;;;;;;22.57;57.96;98478.78;4435947;32;20156;-80
2023/08/14 03:39:45;;;;;;;9.68;4.70;;;;;;;21.71;61.02;98490.31;4437047;32;20094;-80
2023/08/14 03:42:12;;;;;;;10.18;4.60;;;;;;;22.00;60.90;98487.06;4436480;32;20141;-80
2023/08/14 03:44:39;;;;;;;9.93;4.93;;;;;;;22.34;59.06;98493.03;4436501;32;20114;-80
2023/08/14 03:47:06;;;;;;;11.77;4.60;;;;;;;22.23;59.79;98488.69;4435024;32;20058;-80
2023/08/14 03:49:33;;;;;;;9.38;4.40;;;;;;;22.05;60.30;98498.87;4436972;32;20076;-80
2023/08/14 03:52:00;;;;;;;8.65;4.30;;;;;;;22.23;59.96;98494.75;4435692;32;20106;-80
2023/08/14 03:54:27;;;;;;;9.20;4.75;;;;;;;22.40;58.80;98495.12;4437093;32;20153;-80
2023/08/14 03:56:54;;;;;;;8.38;4.47;;;;;;;22.70;56.97;98497.81;4436406;32;20062;-80
2023/08/14 03:59:21;;;;;;;10.05;4.37;;;;;;;21.85;60.05;98502.31;4436455;32;20096;-80
2023/08/14 04:01:47;;;;;;;9.07;4.60;;;;;;;22.36;59.17;98507.72;4436420;32;20101;-80
2023/08/14 04:04:14;;;;;;;8.50;4.50;;;;;;;22.52;59.16;98510.69;4435949;32;20058;-80
2023/08/14 04:06:44;;;;;;;10.15;4.28;;;;;;;22.92;57.28;98509.97;4434340;32;20098;-80
2023/08/14 04:09:11;;;;;;;10.02;4.82;;;;;;;22.62;58.11;98513.38;4437255;32;20062;-80
2023/08/14 04:11:38;;;;;;;9.55;4.12;;;;;;;22.66;58.51;98506.09;4439031;32;20110;-80
2023/08/14 04:14:05;;;;;;;8.18;4.00;;;;;;;23.13;56.70;98494.13;4437930;32;20063;-80
2023/08/14 04:16:43;;;;;;;8.77;4.00;;;;;;;23.38;55.99;98505.97;4437472;32;20073;-81
2023/08/14 04:19:15;;;;;;;9.13;4.40;;;;;;;23.42;55.91;98496.84;4439597;32;20045;-80
2023/08/14 04:21:42;;;;;;;9.13;4.10;;;;;;;24.24;53.22;98505.25;4439183;32;20081;-81
2023/08/14 04:24:09;;;;;;;10.20;4.40;;;;;;;24.32;52.54;98507.19;4439738;32;20058;-80
2023/08/14 04:26:39;;;;;;;8.15;4.05;;;;;;;24.89;51.46;98513.31;4440162;32;20068;-80
2023/08/14 04:29:07;;;;;;;7.57;3.45;;;;;;;25.20;49.73;98518.34;4427387;32;20057;-78
2023/08/14 04:31:38;;;;;;;10.43;3.78;;;;;;;25.78;47.61;98518.06;4440427;32;20066;-80
2023/08/14 04:34:05;;;;;;;8.65;3.70;;;;;;;26.06;46.69;98509.06;4440367;32;20080;-80
2023/08/14 04:36:45;;;;;;;9.80;3.70;;;;;;;26.10;46.91;98510.41;4427123;32;20081;-79
2023/08/14 04:39:12;;;;;;;7.20;3.67;;;;;;;26.70;45.54;98518.50;4440524;32;20080;-79
2023/08/14 04:41:39;;;;;;;11.32;3.72;;;;;;;27.02;44.91;98522.34;4440232;32;20074;-80
2023/08/14 04:44:06;;;;;;;8.20;3.70;;;;;;;27.32;44.32;98526.28;4440083;32;20078;-79
2023/08/14 04:46:37;;;;;;;7.28;3.60;;;;;;;27.82;43.18;98526.28;4427322;32;20066;-79
2023/08/14 04:49:24;;;;;;;8.27;3.78;;;;;;;28.05;42.70;98528.28;4440221;32;20084;-80
2023/08/14 04:51:51;;;;;;;8.43;3.92;;;;;;;28.21;42.74;98536.28;4440127;32;20084;-79
2023/08/14 04:54:18;;;;;;;6.75;3.42;;;;;;;28.27;42.61;98538.25;4440290;32;20117;-80
2023/08/14 04:57:03;;;;;;;7.60;3.70;;;;;;;28.65;41.92;98541.25;4439948;32;20066;-81
2023/08/14 04:59:30;;;;;;;7.20;3.47;;;;;;;29.13;41.01;98539.50;4439783;32;20073;-80
2023/08/14 05:01:57;;;;;;;7.95;3.30;;;;;;;29.88;39.74;98542.47;4439562;32;20106;-81
2023/08/14 05:04:24;;;;;;;6.82;3.20;;;;;;;30.35;39.07;98539.69;4439589;32;20078;-80
2023/08/14 05:06:51;;;;;;;6.97;3.47;;;;;;;30.71;38.33;98534.53;4439498;32;20090;-81
2023/08/14 05:09:18;;;;;;;7.90;3.42;;;;;;;31.15;37.56;98535.56;4439921;32;20115;-81
2023/08/14 05:11:53;;;;;;;6.93;3.22;;;;;;;31.88;36.58;98540.00;4439924;32;20123;-80
2023/08/14 05:14:20;;;;;;;6.75;3.60;;;;;;;32.38;36.05;98544.41;4440051;32;20122;-80
2023/08/14 05:16:47;;;;;;;6.35;3.40;;;;;;;32.63;35.46;98535.97;4439539;32;20069;-81
2023/08/14 05:19:14;;;;;;;6.35;3.37;;;;;;;33.13;34.42;98542.09;4439814;32;20089;-80
2023/08/14 05:21:41;;;;;;;9.13;3.45;;;;;;;33.72;33.91;98539.69;4439843;32;20388;-81
2023/08/14 05:24:09;;;;;;;7.47;3.35;;;;;;;34.71;32.94;98534.47;4439917;32;20071;-81
2023/08/14 05:26:36;;;;;;;7.35;3.50;;;;;;;35.51;32.38;98545.00;4426607;32;20062;-81
2023/08/14 05:29:03;;;;;;;8.02;3.67;;;;;;;36.01;31.14;98545.19;4439775;32;20081;-81
2023/08/14 05:31:30;;;;;;;7.70;3.25;;;;;;;36.84;29.91;98550.38;4439687;32;20085;-81
2023/08/14 05:33:57;;;;;;;6.55;3.53;;;;;;;37.12;28.72;98545.31;4439470;32;20066;-82
2023/08/14 05:36:59;;;;;;;7.22;3.33;;;;;;;37.38;28.89;98549.59;4439652;32;20058;-82
2023/08/14 05:39:26;;;;;;;7.72;3.42;;;;;;;37.81;27.51;98554.84;4439499;32;20073;-82
2023/08/14 05:41:54;;;;;;;7.00;3.30;;;;;;;37.89;27.31;98549.16;4439352;32;20081;-82
2023/08/14 05:44:20;;;;;;;7.00;3.20;;;;;;;37.98;27.94;98554.22;4439668;32;20066;-82
2023/08/14 05:47:07;;;;;;;7.30;3.40;;;;;;;38.38;26.80;98559.81;4439058;32;20072;-81
2023/08/14 05:49:34;;;;;;;11.00;3.62;;;;;;;38.30;27.07;98562.88;4439665;32;20062;-81
2023/08/14 05:52:01;;;;;;;9.23;3.70;;;;;;;38.03;26.75;98549.75;4439343;32;20078;-82
2023/08/14 05:54:28;;;;;;;9.00;3.80;;;;;;;38.10;26.78;98560.44;4438834;32;20099;-82
2023/08/14 05:57:02;;;;;;;9.93;4.22;;;;;;;37.99;27.47;98564.75;4437172;32;20114;-83
2023/08/14 05:59:30;;;;;;;8.00;4.00;;;;;;;36.49;29.70;98561.63;4418528;32;20078;-82
2023/08/14 06:01:57;;;;;;;7.37;3.85;;;;;;;36.27;30.66;98561.13;4435425;32;20050;-80
2023/08/14 06:07:10;;;;;;;11.05;3.70;;;;;;;36.23;31.13;98560.72;4435672;27;20078;-78
2023/08/14 06:09:37;;;;;;;7.22;3.90;;;;;;;35.08;33.07;98561.63;4412844;32;20061;-78
2023/08/14 06:12:05;;;;;;;10.93;4.10;;;;;;;34.58;34.16;98558.59;4432014;32;20070;-79
2023/08/14 06:14:32;;;;;;;9.07;3.87;;;;;;;34.67;34.41;98568.09;4433031;32;20081;-79
2023/08/14 06:16:59;;;;;;;7.80;3.95;;;;;;;34.86;34.04;98566.38;4673920;27;20074;-79
2023/08/14 06:19:26;;;;;;;9.15;4.45;;;;;;;32.76;35.81;98566.28;4436458;32;20081;-79
2023/08/14 06:21:54;;;;;;;11.60;4.62;;;;;;;31.32;37.87;98545.87;4434189;32;20117;-80
2023/08/14 06:24:22;;;;;;;9.05;4.80;;;;;;;30.15;39.79;98565.94;4433546;32;20066;-79
2023/08/14 06:26:51;;;;;;;11.48;5.05;;;;;;;29.36;41.47;98559.03;4432086;32;20073;-79
2023/08/14 06:29:18;;;;;;;9.20;4.53;;;;;;;28.74;44.40;98556.19;4431229;32;20100;-76
2023/08/14 06:31:45;;;;;;;11.23;5.07;;;;;;;28.99;43.96;98568.44;4435172;32;20156;-77
2023/08/14 06:34:12;;;;;;;10.93;4.95;;;;;;;29.17;43.64;98572.72;4440466;32;20074;-77
2023/08/14 06:36:39;;;;;;;8.70;4.90;;;;;;;29.30;43.75;98575.66;4436602;32;20063;-78
2023/08/14 06:39:07;;;;;;;9.93;4.70;;;;;;;29.01;43.90;98578.88;4441062;32;20081;-79
2023/08/14 06:41:34;;;;;;;11.05;5.07;;;;;;;30.30;41.03;98578.47;4441055;32;20089;-80
2023/08/14 06:44:01;;;;;;;10.45;5.05;;;;;;;30.01;41.46;98573.84;4440049;32;20120;-78
2023/08/14 06:46:34;;;;;;;9.35;4.87;;;;;;;31.19;39.60;98571.53;4440807;32;20065;-79
2023/08/14 06:49:01;;;;;;;10.13;4.72;;;;;;;30.53;40.75;98574.81;4440998;32;20097;-79
2023/08/14 06:51:28;;;;;;;13.52;4.90;;;;;;;31.19;38.85;98567.00;4440827;32;20090;-79
2023/08/14 06:53:55;;;;;;;9.65;4.68;;;;;;;32.29;37.53;98572.25;4440878;32;20065;-79
2023/08/14 06:56:26;;;;;;;9.63;4.70;;;;;;;32.09;37.71;98576.53;4440510;32;20059;-79
2023/08/14 06:58:53;;;;;;;9.10;4.70;;;;;;;33.61;34.31;98575.87;4440845;32;20080;-80
2023/08/14 07:01:20;;;;;;;10.45;4.68;;;;;;;31.52;38.59;98579.97;4436402;32;20077;-79
2023/08/14 07:03:48;;;;;;;12.30;4.78;;;;;;;32.80;36.76;98586.25;4426769;32;20070;-79
2023/08/14 07:06:19;;;;;;;18.48;7.85;;;;;;;32.67;36.28;98577.31;4439638;32;20063;-77
2023/08/14 07:08:46;;;;;;;8.88;4.10;;;;;;;32.65;36.85;98585.53;4440722;32;20062;-79
2023/08/14 07:11:13;;;;;;;8.80;4.03;;;;;;;32.15;35.67;98575.81;4440428;32;20085;-77
2023/08/14 07:13:40;;;;;;;7.97;4.15;;;;;;;31.76;37.28;98585.03;4440761;32;20084;-79
2023/08/14 07:16:07;;;;;;;8.23;4.25;;;;;;;32.71;35.86;98578.56;4440424;32;20066;-78
2023/08/14 07:18:34;;;;;;;8.85;4.15;;;;;;;31.17;38.70;98582.38;4440540;32;20101;-78
2023/08/14 07:21:01;;;;;;;8.40;4.35;;;;;;;31.76;37.75;98576.19;4440733;32;20126;-78
2023/08/14 07:23:28;;;;;;;9.10;4.50;;;;;;;31.46;38.79;98581.53;4440553;32;20094;-77
2023/08/14 07:25:59;;;;;;;8.52;4.40;;;;;;;31.72;38.53;98583.72;4439152;32;20054;-77
2023/08/14 07:28:26;;;;;;;12.35;4.18;;;;;;;30.55;40.14;98576.47;4437209;32;20077;-77
2023/08/14 07:30:53;;;;;;;9.13;4.12;;;;;;;31.97;37.43;98578.06;4426891;32;20094;-77
2023/08/14 07:33:20;;;;;;;9.07;4.00;;;;;;;31.35;38.21;98574.00;4425953;32;20105;-80
2023/08/14 07:35:47;;;;;;;9.80;4.43;;;;;;;31.64;38.12;98587.31;4425602;32;20179;-79
2023/08/14 07:38:14;;;;;;;9.07;4.03;;;;;;;31.27;38.58;98584.78;4426135;32;20166;-82
2023/08/14 07:40:41;;;;;;;9.30;4.30;;;;;;;32.10;37.46;98583.53;4426676;32;20058;-78
2023/08/14 07:43:08;;;;;;;9.25;4.43;;;;;;;32.32;37.33;98584.41;4431044;32;20104;-78
2023/08/14 07:45:35;;;;;;;8.68;4.12;;;;;;;32.85;37.28;98583.00;4432383;32;20090;-78
2023/08/14 07:48:03;;;;;;;8.25;3.85;;;;;;;34.54;32.96;98583.31;4433786;32;20097;-78
2023/08/14 07:50:30;;;;;;;7.22;3.70;;;;;;;34.78;32.31;98585.41;4431788;32;20164;-79
2023/08/14 07:52:57;;;;;;;5.95;3.40;;;;;;;35.18;31.13;98580.78;4426663;32;20141;-77
2023/08/14 07:55:25;;;;;;;8.90;4.15;;;;;;;35.24;32.20;98589.88;4433429;32;20088;-78
2023/08/14 07:57:52;;;;;;;10.23;4.18;;;;;;;34.79;30.79;98587.03;4436576;32;20062;-78
2023/08/14 08:00:19;;;;;;;9.90;4.37;;;;;;;34.78;32.99;98598.78;4439238;32;20059;-78
2023/08/14 08:02:46;;;;;;;8.15;4.22;;;;;;;34.55;32.39;98595.69;4440157;32;20070;-79
2023/08/14 08:05:15;;;;;;;10.60;3.75;;;;;;;33.91;35.07;98607.69;4439873;32;20106;-79
2023/08/14 08:07:46;;;;;;;11.48;4.30;;;;;;;35.19;30.95;98598.53;4439918;32;20063;-79
2023/08/14 08:10:13;;;;;;;8.27;4.00;;;;;;;35.79;30.48;98604.56;4440045;32;20058;-79
2023/08/14 08:12:40;;;;;;;9.95;4.00;;;;;;;35.70;31.60;98605.84;4440199;32;20122;-79
2023/08/14 08:15:07;;;;;;;10.75;4.18;;;;;;;36.38;30.59;98608.81;4427028;32;20074;-79
2023/08/14 08:17:34;;;;;;;8.32;3.85;;;;;;;35.77;32.16;98603.94;4426835;32;20054;-79
2023/08/14 08:20:01;;;;;;;7.50;4.30;;;;;;;36.10;29.99;98605.66;4440341;32;20085;-79
2023/08/14 08:22:28;;;;;;;7.90;4.15;;;;;;;35.71;30.60;98610.16;4439920;32;20121;-78
2023/08/14 08:24:55;;;;;;;11.90;4.05;;;;;;;36.44;30.15;98609.81;4440253;32;20065;-79
2023/08/14 08:27:22;;;;;;;9.65;4.00;;;;;;;36.87;29.57;98614.44;4440115;32;20108;-79
2023/08/14 08:29:49;;;;;;;6.45;3.50;;;;;;;37.41;27.93;98610.19;4439941;32;20067;-79
2023/08/14 08:32:16;;;;;;;7.12;3.53;;;;;;;38.21;26.20;98608.19;4440252;32;20074;-79
2023/08/14 08:34:43;;;;;;;7.05;3.47;;;;;;;37.18;28.87;98611.66;4438139;32;20061;-79
2023/08/14 08:37:11;;;;;;;8.52;3.22;;;;;;;36.61;28.37;98602.03;4438931;32;20066;-79
2023/08/14 08:39:38;;;;;;;8.30;3.62;;;;;;;36.68;28.30;98602.78;4439498;32;20070;-79
2023/08/14 08:42:07;;;;;;;5.93;3.15;;;;;;;37.04;27.31;98605.59;4439355;32;20070;-78
2023/08/14 08:44:34;;;;;;;7.55;3.55;;;;;;;36.72;27.81;98598.63;4439351;32;20062;-79
2023/08/14 08:47:08;;;;;;;5.45;2.90;;;;;;;35.58;28.92;98599.50;4439376;32;20062;-79
2023/08/14 08:49:35;;;;;;;6.90;3.03;;;;;;;36.07;29.21;98596.19;4439071;32;20066;-78
2023/08/14 08:52:03;;;;;;;6.28;3.20;;;;;;;37.06;25.40;98602.69;4438636;32;20121;-79
2023/08/14 08:54:31;;;;;;;5.55;3.00;;;;;;;36.86;26.05;98602.06;4440042;32;20062;-79
2023/08/14 08:56:59;;;;;;;9.13;3.30;;;;;;;36.87;26.73;98598.31;4426363;32;20082;-78
2023/08/14 08:59:26;;;;;;;9.35;3.30;;;;;;;36.62;27.07;98603.69;4439887;32;20084;-79
2023/08/14 09:01:53;;;;;;;6.53;3.20;;;;;;;35.19;28.64;98603.91;4439676;32;20110;-79
2023/08/14 09:04:23;;;;;;;11.10;3.20;;;;;;;36.40;27.41;98597.84;4436691;32;20151;-79
2023/08/14 09:06:50;;;;;;;5.20;3.00;;;;;;;34.94;28.60;98592.19;4430357;32;20435;-79
2023/08/14 09:09:18;;;;;;;7.90;2.97;;;;;;;36.26;27.72;98596.25;4411850;32;20120;-80
2023/08/14 09:11:44;;;;;;;7.15;2.80;;;;;;;37.18;25.84;98598.22;4411564;32;20109;-80
2023/08/14 09:14:12;;;;;;;5.00;2.75;;;;;;;37.36;25.32;98602.81;4411940;32;20165;-80
2023/08/14 09:16:41;;;;;;;5.32;2.70;;;;;;;36.59;24.78;98582.63;4411611;32;20090;-80
2023/08/14 09:19:08;;;;;;;6.55;2.90;;;;;;;35.90;26.59;98585.13;4426645;32;20436;-81
2023/08/14 09:21:35;;;;;;;5.18;2.90;;;;;;;34.77;27.49;98583.72;4427625;32;20108;-81
2023/08/14 09:24:02;;;;;;;6.90;2.97;;;;;;;36.63;26.85;98590.03;4435147;32;20063;-78
2023/08/14 09:26:29;;;;;;;5.65;2.83;;;;;;;37.17;25.52;98577.72;4436650;32;20104;-78
2023/08/14 09:28:57;;;;;;;7.97;3.00;;;;;;;37.47;23.70;98588.59;4424121;32;20078;-78
2023/08/14 09:31:24;;;;;;;8.60;3.08;;;;;;;35.84;25.33;98585.13;4425061;32;20086;-77
2023/08/14 09:33:50;;;;;;;6.65;2.97;;;;;;;35.95;24.99;98583.66;4439421;32;20398;-78
2023/08/14 09:36:18;;;;;;;7.53;2.95;;;;;;;35.84;24.07;98579.78;4426271;32;20062;-78
2023/08/14 09:38:45;;;;;;;6.15;2.87;;;;;;;35.77;24.50;98579.78;4438779;32;20078;-77
2023/08/14 09:41:12;;;;;;;7.62;2.80;;;;;;;36.00;23.65;98576.59;4439265;32;20066;-78
2023/08/14 09:43:39;;;;;;;6.35;2.90;;;;;;;36.26;25.75;98574.75;4438360;32;20053;-78
2023/08/14 09:46:10;;;;;;;7.87;2.92;;;;;;;35.13;26.04;98564.53;4437975;32;20118;-78
2023/08/14 09:48:47;;;;;;;6.72;3.12;;;;;;;36.15;25.62;98571.72;4437203;32;20078;-78
2023/08/14 09:51:18;;;;;;;7.30;3.00;;;;;;;36.40;22.64;98577.19;4438587;32;20072;-78
2023/08/14 09:53:50;;;;;;;6.90;2.60;;;;;;;35.77;25.09;98579.78;4426263;32;20072;-78
2023/08/14 09:56:19;;;;;;;6.22;3.15;;;;;;;37.25;23.63;98576.63;4424959;32;20081;-78
2023/08/14 09:58:47;;;;;;;7.62;2.90;;;;;;;36.76;22.45;98568.37;4437633;32;20063;-78
2023/08/14 10:01:15;;;;;;;6.78;3.20;;;;;;;36.66;22.61;98578.00;4436090;32;20098;-79
2023/08/14 10:03:43;;;;;;;7.70;2.90;;;;;;;36.27;22.70;98571.88;4435987;32;20065;-78
2023/08/14 10:06:13;;;;;;;5.20;2.50;;;;;;;36.25;23.26;98573.13;4426165;32;20098;-78
2023/08/14 10:08:43;;;;;;;5.90;2.65;;;;;;;36.77;22.62;98569.22;4436233;32;20110;-80
2023/08/14 10:11:12;;;;;;;6.40;3.17;;;;;;;37.52;24.39;98575.28;4434670;32;20097;-80
2023/08/14 10:13:51;;;;;;;5.62;3.22;;;;;;;36.49;22.04;98562.44;4434081;32;20086;-81
2023/08/14 10:16:24;;;;;;;6.15;3.10;;;;;;;37.00;23.09;98568.59;4423098;32;20050;-81
2023/08/14 10:18:55;;;;;;;5.55;2.78;;;;;;;36.76;22.78;98576.44;4422744;32;20070;-81
2023/08/14 10:21:26;;;;;;;5.40;2.62;;;;;;;36.60;22.10;98568.97;4423536;32;20082;-81
2023/08/14 10:23:54;;;;;;;7.37;2.95;;;;;;;35.83;23.27;98564.66;4423784;32;20105;-80
2023/08/14 10:26:22;;;;;;;6.85;2.80;;;;;;;35.42;23.48;98565.91;4436623;32;20067;-80
2023/08/14 10:28:52;;;;;;;8.23;2.97;;;;;;;36.25;23.51;98557.81;4434360;32;20097;-80
2023/08/14 10:31:20;;;;;;;4.22;2.50;;;;;;;36.83;23.68;98554.09;4434355;32;20062;-81
2023/08/14 10:33:47;;;;;;;5.40;2.78;;;;;;;35.46;24.75;98560.94;4421269;32;20065;-80
2023/08/14 10:36:20;;;;;;;6.07;2.85;;;;;;;36.79;24.90;98554.53;4421943;32;20086;-81
2023/08/14 10:38:48;;;;;;;5.15;2.42;;;;;;;36.81;24.72;98562.38;4436588;32;20102;-80
2023/08/14 10:41:32;;;;;;;5.32;2.60;;;;;;;37.12;22.54;98550.69;4435811;32;20062;-80
2023/08/14 10:44:05;;;;;;;4.97;2.72;;;;;;;36.75;24.29;98550.63;4436548;32;20082;-80
2023/08/14 10:46:36;;;;;;;5.43;2.97;;;;;;;36.78;25.73;98546.66;4421262;32;20132;-80
2023/08/14 10:49:03;;;;;;;7.07;3.45;;;;;;;36.94;25.09;98542.59;4433655;32;20058;-80
2023/08/14 10:51:32;;;;;;;8.25;3.00;;;;;;;36.43;24.81;98532.91;4434288;32;20098;-80
2023/08/14 10:54:09;;;;;;;5.97;3.00;;;;;;;37.01;25.46;98536.13;4433603;32;20086;-80
2023/08/14 10:56:46;;;;;;;6.70;3.10;;;;;;;37.22;24.59;98539.38;4429529;32;20529;-80
2023/08/14 10:59:26;;;;;;;6.72;3.05;;;;;;;37.32;24.42;98537.00;4430847;32;20113;-80
2023/08/14 11:02:09;;;;;;;5.62;3.08;;;;;;;37.39;24.03;98540.47;4421066;32;20111;-76
2023/08/14 11:04:58;;;;;;;6.78;3.20;;;;;;;37.67;24.62;98537.22;4434015;32;20436;-76
2023/08/14 11:07:32;;;;;;;7.05;2.90;;;;;;;37.58;24.66;98538.56;4429159;32;20475;-76
2023/08/14 11:09:59;;;;;;;6.75;3.03;;;;;;;36.92;24.75;98533.94;4429697;32;20097;-76
2023/08/14 11:12:34;;;;;;;5.43;3.08;;;;;;;36.94;24.99;98532.69;4429584;32;20088;-76
2023/08/14 11:15:01;;;;;;;6.03;3.37;;;;;;;36.92;26.03;98534.78;4428283;32;20093;-76
2023/08/14 11:17:28;;;;;;;5.35;2.97;;;;;;;37.48;25.88;98538.28;4413871;32;20094;-76
2023/08/14 11:19:55;;;;;;;5.82;3.03;;;;;;;36.31;26.30;98526.59;4430984;32;20106;-76
2023/08/14 11:22:22;;;;;;;8.57;3.40;;;;;;;35.95;26.64;98528.09;4433786;32;20591;-76
2023/08/14 11:24:50;;;;;;;7.55;3.00;;;;;;;36.94;26.09;98527.28;4432424;32;20148;-76
2023/08/14 11:27:17;;;;;;;6.70;2.90;;;;;;;37.18;25.29;98538.19;4431705;32;20049;-77
2023/08/14 11:29:48;;;;;;;6.97;2.92;;;;;;;36.97;24.15;98526.03;4433272;32;20110;-77
2023/08/14 11:32:22;;;;;;;5.68;3.20;;;;;;;36.26;26.36;98527.22;4434645;32;20066;-76
2023/08/14 11:34:50;;;;;;;6.40;3.10;;;;;;;37.07;24.09;98524.44;4420876;32;20066;-77
2023/08/14 11:37:24;;;;;;;7.60;3.37;;;;;;;35.72;26.08;98523.22;4437396;32;20097;-78
2023/08/14 11:39:51;;;;;;;6.18;3.20;;;;;;;35.46;26.77;98518.84;4439474;32;20077;-80